• Join FlightAware (Why Join?)
  • Login
  • US Flag 
08:00PM EDT


 

Airport Tracker/Info


-or-


 

Live Flight TrackerFlight Track Log ✈ PDT4226 ✈ 13-Oct-2013 ✈ KBGM - KPHL

Flight Track Log - Related Links

Times and Time Zones

All times are in EDT time to prevent confusion due to time zone crossing. See the PDT4226 flight status page for this flight to view local times or setup timezone preferences in your user account.

Time Position Orientation Groundspeed Altitude Reporting Facility
EDT Latitude Longitude Course Direction KTS MPH feet Rate Location/Type
02:00PM 42.0306 -75.9214 180° South  Level Estimated
02:01PM 41.9696 -75.9240 182° South  Level FlightAware Approximate
02:02PM 41.9104 -75.9041 154° Southeast  Level Estimated
02:03PM 41.8513 -75.8843 160° South  Level Estimated
02:04PM 41.7921 -75.8644 159° South  Level Estimated
02:05PM 41.7319 -75.8511 171° South  Level FlightAware Approximate
02:06PM 41.6727 -75.8311 153° Southeast  Level Estimated
02:07PM 41.6136 -75.8112 161° South  Level Estimated
02:08PM 41.5548 -75.7894 165° South  Level FlightAware Approximate
02:09PM 41.4960 -75.7677 165° South  Level FlightAware Approximate
02:10PM 41.4368 -75.7480 162° South  Level Estimated
02:11PM 41.3786 -75.7237 163° South  Level FlightAware Approximate
02:12PM 41.3204 -75.6994 163° South  Level FlightAware Approximate
02:13PM 41.2621 -75.6752 163° South  Level FlightAware Approximate
02:14PM 41.2039 -75.6510 163° South  Level FlightAware Approximate
02:15PM 41.1445 -75.6324 159° South  Level Estimated
02:16PM 41.0852 -75.6137 163° South  Level Estimated
02:17PM 41.0274 -75.5879 161° South  Level FlightAware Approximate
02:18PM 40.9695 -75.5622 161° South  Level FlightAware Approximate
02:19PM 40.9117 -75.5364 161° South  Level FlightAware Approximate
02:20PM 40.8521 -75.5192 190° South  Level Estimated
02:21PM 40.7911 -75.5159 178° South  Level FlightAware Approximate
02:22PM 40.7302 -75.5126 178° South  Level FlightAware Approximate
02:23PM 40.6709 -75.4936 187° South  Level Estimated
02:24PM 40.6100 -75.4988 184° South  Level FlightAware Approximate
02:24PM 40.6500 -75.5833 143° Southeast 262 302 6,200  Level Philadelphia TRACON
02:25PM 40.5511 -75.4780 190° South  Level Estimated
02:26PM 40.4911 -75.4924 190° South  Level FlightAware Approximate
02:26PM 40.5333 -75.5667 174° South 256 295 5,000  Level Philadelphia TRACON
02:27PM 40.4311 -75.5068 190° South  Level FlightAware Approximate
02:27PM 40.4667 -75.5667 180° South 235 270 5,000  Level Philadelphia TRACON
02:28PM 40.3738 -75.4793 143° Southeast  Level Estimated
02:28PM 40.4000 -75.5667 180° South 232 267 5,000  Level Philadelphia TRACON
02:29PM 40.3165 -75.4518 143° Southeast  Level Estimated
02:29PM 40.3333 -75.5500 169° South 230 265 5,000  Level Philadelphia TRACON
02:30PM 40.2833 -75.5333 166° South 231 266 5,000  Level Philadelphia TRACON
02:31PM 40.2167 -75.5167 169° South 228 262 5,000 -60 Level Philadelphia TRACON
02:32PM 40.1667 -75.5000 166° South 230 265 4,900 -480 Descending Philadelphia TRACON
02:33PM 40.1000 -75.4667 159° South 245 282 4,100 -420 Descending Philadelphia TRACON
02:34PM 40.0333 -75.4167 150° Southeast 227 261 4,000 -60 Descending Philadelphia TRACON
02:35PM 39.9667 -75.3833 159° South 219 252 4,000  Level Philadelphia TRACON
02:36PM 39.9167 -75.3667 166° South 204 235 4,000  Level Philadelphia TRACON
02:37PM 39.8833 -75.3500 159° South 206 237 4,000 -60 Level Philadelphia TRACON
02:38PM 39.8000 -75.3167 163° South 206 237 3,900 -480 Descending Philadelphia TRACON
02:39PM 39.7500 -75.3000 166° South 193 222 3,000 -660 Descending Philadelphia TRACON
02:40PM 39.7167 -75.2833 159° South 196 226 2,800 -720 Descending Philadelphia TRACON
02:41PM 39.7333 -75.2167 72° East 174 200 1,700 -600 Descending Philadelphia TRACON
02:42PM 39.7833 -75.2167 360° North 169 194 1,600 -300 Descending Philadelphia TRACON
02:43PM 39.8167 -75.2000 21° North 139 160 1,200 -540 Descending Philadelphia TRACON
02:44PM 39.8500 -75.2167 339° North 124 143 600 -600 Descending Philadelphia TRACON